sensor_id;sensor_type;location;lat;lon;timestamp;pressure;altitude;pressure_sealevel;temperature;humidity
47726;BME280;33483;48.294;16.388;2023-06-14T00:01:04;99290.06;;;11.60;100.00
47726;BME280;33483;48.294;16.388;2023-06-14T00:03:43;99288.94;;;11.56;100.00
47726;BME280;33483;48.294;16.388;2023-06-14T00:06:10;99288.03;;;11.61;100.00
47726;BME280;33483;48.294;16.388;2023-06-14T00:08:38;99293.94;;;11.57;100.00
47726;BME280;33483;48.294;16.388;2023-06-14T00:11:09;99283.38;;;11.56;100.00
47726;BME280;33483;48.294;16.388;2023-06-14T00:13:36;99284.03;;;11.49;100.00
47726;BME280;33483;48.294;16.388;2023-06-14T00:16:06;99277.53;;;11.46;100.00
47726;BME280;33483;48.294;16.388;2023-06-14T00:18:33;99279.88;;;11.42;100.00
47726;BME280;33483;48.294;16.388;2023-06-14T00:21:00;99279.50;;;11.38;100.00
47726;BME280;33483;48.294;16.388;2023-06-14T00:23:29;99286.84;;;11.35;100.00
47726;BME280;33483;48.294;16.388;2023-06-14T00:25:56;99289.53;;;11.28;100.00
47726;BME280;33483;48.294;16.388;2023-06-14T00:28:26;99285.63;;;11.23;100.00
47726;BME280;33483;48.294;16.388;2023-06-14T00:30:56;99285.41;;;11.21;100.00
47726;BME280;33483;48.294;16.388;2023-06-14T00:33:23;99286.06;;;11.14;100.00
47726;BME280;33483;48.294;16.388;2023-06-14T00:35:51;99286.28;;;11.16;100.00
47726;BME280;33483;48.294;16.388;2023-06-14T00:38:20;99284.16;;;11.09;100.00
47726;BME280;33483;48.294;16.388;2023-06-14T00:40:50;99284.69;;;11.08;100.00
47726;BME280;33483;48.294;16.388;2023-06-14T00:43:17;99290.03;;;11.06;100.00
47726;BME280;33483;48.294;16.388;2023-06-14T00:45:45;99276.16;;;11.06;100.00
47726;BME280;33483;48.294;16.388;2023-06-14T00:48:13;99289.09;;;11.03;100.00
47726;BME280;33483;48.294;16.388;2023-06-14T00:50:43;99280.97;;;11.05;100.00
47726;BME280;33483;48.294;16.388;2023-06-14T00:53:15;99276.72;;;11.04;100.00
47726;BME280;33483;48.294;16.388;2023-06-14T00:55:44;99281.09;;;11.00;100.00
47726;BME280;33483;48.294;16.388;2023-06-14T00:58:12;99281.22;;;10.94;100.00
47726;BME280;33483;48.294;16.388;2023-06-14T01:00:41;99281.00;;;10.92;100.00
47726;BME280;33483;48.294;16.388;2023-06-14T01:03:08;99279.91;;;10.95;100.00
47726;BME280;33483;48.294;16.388;2023-06-14T01:05:40;99279.50;;;10.91;100.00
47726;BME280;33483;48.294;16.388;2023-06-14T01:13:20;99286.34;;;10.90;100.00
47726;BME280;33483;48.294;16.388;2023-06-14T01:15:48;99278.66;;;10.83;100.00
47726;BME280;33483;48.294;16.388;2023-06-14T01:18:17;99281.53;;;10.91;100.00
47726;BME280;33483;48.294;16.388;2023-06-14T01:20:45;99279.41;;;10.84;100.00
47726;BME280;33483;48.294;16.388;2023-06-14T01:23:17;99276.75;;;10.78;100.00
47726;BME280;33483;48.294;16.388;2023-06-14T01:25:44;99277.28;;;10.77;100.00
47726;BME280;33483;48.294;16.388;2023-06-14T01:28:11;99276.88;;;10.73;100.00
47726;BME280;33483;48.294;16.388;2023-06-14T01:30:40;99266.09;;;10.69;100.00
47726;BME280;33483;48.294;16.388;2023-06-14T01:33:15;99267.63;;;10.70;100.00
47726;BME280;33483;48.294;16.388;2023-06-14T01:35:46;99260.78;;;10.71;100.00
47726;BME280;33483;48.294;16.388;2023-06-14T01:38:13;99262.56;;;10.82;100.00
47726;BME280;33483;48.294;16.388;2023-06-14T01:40:43;99256.94;;;10.74;100.00
47726;BME280;33483;48.294;16.388;2023-06-14T01:43:12;99255.13;;;10.77;100.00
47726;BME280;33483;48.294;16.388;2023-06-14T01:45:44;99256.06;;;10.79;100.00
47726;BME280;33483;48.294;16.388;2023-06-14T01:48:12;99253.94;;;10.72;100.00
47726;BME280;33483;48.294;16.388;2023-06-14T01:50:39;99257.69;;;10.75;100.00
47726;BME280;33483;48.294;16.388;2023-06-14T01:53:07;99260.56;;;10.69;100.00
47726;BME280;33483;48.294;16.388;2023-06-14T01:55:36;99256.19;;;10.74;100.00
47726;BME280;33483;48.294;16.388;2023-06-14T01:58:10;99263.97;;;10.75;100.00
47726;BME280;33483;48.294;16.388;2023-06-14T02:00:38;99252.56;;;10.79;100.00
47726;BME280;33483;48.294;16.388;2023-06-14T02:03:05;99257.78;;;10.82;100.00
47726;BME280;33483;48.294;16.388;2023-06-14T02:05:33;99253.50;;;10.81;100.00
47726;BME280;33483;48.294;16.388;2023-06-14T02:08:04;99252.63;;;10.86;100.00
47726;BME280;33483;48.294;16.388;2023-06-14T02:10:31;99251.03;;;10.91;100.00
47726;BME280;33483;48.294;16.388;2023-06-14T02:12:58;99248.66;;;10.95;100.00
47726;BME280;33483;48.294;16.388;2023-06-14T02:15:26;99249.84;;;10.99;100.00
47726;BME280;33483;48.294;16.388;2023-06-14T02:18:03;99249.53;;;11.03;100.00
47726;BME280;33483;48.294;16.388;2023-06-14T02:20:33;99255.28;;;11.05;100.00
47726;BME280;33483;48.294;16.388;2023-06-14T02:23:00;99254.75;;;11.06;100.00
47726;BME280;33483;48.294;16.388;2023-06-14T02:25:31;99249.19;;;11.06;100.00
47726;BME280;33483;48.294;16.388;2023-06-14T02:27:58;99264.53;;;11.07;100.00
47726;BME280;33483;48.294;16.388;2023-06-14T02:30:25;99257.72;;;11.08;100.00
47726;BME280;33483;48.294;16.388;2023-06-14T02:32:55;99253.66;;;11.09;100.00
47726;BME280;33483;48.294;16.388;2023-06-14T02:35:24;99265.16;;;11.13;100.00
47726;BME280;33483;48.294;16.388;2023-06-14T02:37:55;99257.06;;;11.15;100.00
47726;BME280;33483;48.294;16.388;2023-06-14T02:40:22;99266.53;;;11.20;100.00
47726;BME280;33483;48.294;16.388;2023-06-14T02:42:51;99267.06;;;11.18;100.00
47726;BME280;33483;48.294;16.388;2023-06-14T02:45:19;99261.19;;;11.22;100.00
47726;BME280;33483;48.294;16.388;2023-06-14T02:47:47;99262.34;;;11.26;100.00
47726;BME280;33483;48.294;16.388;2023-06-14T02:50:15;99260.75;;;11.31;100.00
47726;BME280;33483;48.294;16.388;2023-06-14T02:52:43;99260.19;;;11.32;100.00
47726;BME280;33483;48.294;16.388;2023-06-14T02:55:15;99268.19;;;11.36;100.00
47726;BME280;33483;48.294;16.388;2023-06-14T02:57:43;99267.44;;;11.35;100.00
47726;BME280;33483;48.294;16.388;2023-06-14T03:00:11;99270.22;;;11.35;100.00
47726;BME280;33483;48.294;16.388;2023-06-14T03:02:43;99264.31;;;11.39;100.00
47726;BME280;33483;48.294;16.388;2023-06-14T03:05:11;99261.34;;;11.37;100.00
47726;BME280;33483;48.294;16.388;2023-06-14T03:07:40;99270.63;;;11.40;100.00
47726;BME280;33483;48.294;16.388;2023-06-14T03:10:09;99262.38;;;11.47;100.00
47726;BME280;33483;48.294;16.388;2023-06-14T03:12:39;99263.31;;;11.50;100.00
47726;BME280;33483;48.294;16.388;2023-06-14T03:15:08;99266.63;;;11.48;100.00
47726;BME280;33483;48.294;16.388;2023-06-14T03:17:39;99271.84;;;11.52;100.00
47726;BME280;33483;48.294;16.388;2023-06-14T03:20:08;99280.38;;;11.54;100.00
47726;BME280;33483;48.294;16.388;2023-06-14T03:22:35;99275.78;;;11.56;100.00
47726;BME280;33483;48.294;16.388;2023-06-14T03:25:03;99273.75;;;11.57;100.00
47726;BME280;33483;48.294;16.388;2023-06-14T03:27:35;99278.22;;;11.60;100.00
47726;BME280;33483;48.294;16.388;2023-06-14T03:30:02;99284.72;;;11.62;100.00
47726;BME280;33483;48.294;16.388;2023-06-14T03:32:31;99288.13;;;11.68;100.00
47726;BME280;33483;48.294;16.388;2023-06-14T03:35:01;99283.53;;;11.71;100.00
47726;BME280;33483;48.294;16.388;2023-06-14T03:37:28;99281.00;;;11.80;100.00
47726;BME280;33483;48.294;16.388;2023-06-14T03:39:55;99292.44;;;12.18;100.00
47726;BME280;33483;48.294;16.388;2023-06-14T03:42:24;99295.28;;;13.32;100.00
47726;BME280;33483;48.294;16.388;2023-06-14T03:44:53;99305.06;;;14.37;100.00
47726;BME280;33483;48.294;16.388;2023-06-14T03:47:23;99313.03;;;15.18;100.00
47726;BME280;33483;48.294;16.388;2023-06-14T03:49:51;99325.31;;;15.87;100.00
47726;BME280;33483;48.294;16.388;2023-06-14T03:52:21;99335.50;;;16.48;100.00
47726;BME280;33483;48.294;16.388;2023-06-14T03:54:50;99339.88;;;16.59;100.00
47726;BME280;33483;48.294;16.388;2023-06-14T03:57:22;99334.75;;;15.74;100.00
47726;BME280;33483;48.294;16.388;2023-06-14T03:59:50;99345.63;;;16.61;100.00
47726;BME280;33483;48.294;16.388;2023-06-14T04:02:18;99348.28;;;17.27;100.00
47726;BME280;33483;48.294;16.388;2023-06-14T04:04:45;99355.56;;;18.10;100.00
47726;BME280;33483;48.294;16.388;2023-06-14T04:07:14;99362.34;;;18.43;100.00
47726;BME280;33483;48.294;16.388;2023-06-14T04:09:41;99368.50;;;18.32;100.00
47726;BME280;33483;48.294;16.388;2023-06-14T04:12:08;99369.69;;;19.13;93.46
47726;BME280;33483;48.294;16.388;2023-06-14T04:14:41;99383.94;;;19.44;87.81
47726;BME280;33483;48.294;16.388;2023-06-14T04:17:10;99391.28;;;19.58;83.99
47726;BME280;33483;48.294;16.388;2023-06-14T04:19:39;99392.44;;;18.79;85.78
47726;BME280;33483;48.294;16.388;2023-06-14T04:22:07;99398.19;;;18.71;87.47
47726;BME280;33483;48.294;16.388;2023-06-14T04:24:38;99399.16;;;18.57;86.14
47726;BME280;33483;48.294;16.388;2023-06-14T04:27:05;99399.84;;;19.03;82.99
47726;BME280;33483;48.294;16.388;2023-06-14T04:29:35;99410.97;;;19.30;78.65
47726;BME280;33483;48.294;16.388;2023-06-14T04:32:10;99412.44;;;19.02;79.54
47726;BME280;33483;48.294;16.388;2023-06-14T04:34:38;99411.88;;;18.58;83.45
47726;BME280;33483;48.294;16.388;2023-06-14T04:37:07;99405.47;;;18.12;88.69
47726;BME280;33483;48.294;16.388;2023-06-14T04:39:39;99400.13;;;17.79;90.07
47726;BME280;33483;48.294;16.388;2023-06-14T04:42:07;99403.81;;;17.55;93.88
47726;BME280;33483;48.294;16.388;2023-06-14T04:44:35;99403.78;;;17.04;94.47
47726;BME280;33483;48.294;16.388;2023-06-14T04:47:04;99409.69;;;16.74;100.00
47726;BME280;33483;48.294;16.388;2023-06-14T04:49:31;99407.19;;;16.61;98.71
47726;BME280;33483;48.294;16.388;2023-06-14T04:51:59;99409.38;;;16.70;92.60
47726;BME280;33483;48.294;16.388;2023-06-14T04:54:39;99411.50;;;16.79;95.66
47726;BME280;33483;48.294;16.388;2023-06-14T04:57:12;99397.13;;;17.17;97.35
47726;BME280;33483;48.294;16.388;2023-06-14T04:59:43;99401.97;;;17.67;90.11
47726;BME280;33483;48.294;16.388;2023-06-14T05:02:11;99413.63;;;19.08;77.96
47726;BME280;33483;48.294;16.388;2023-06-14T05:04:39;99411.97;;;20.72;67.49
47726;BME280;33483;48.294;16.388;2023-06-14T05:07:07;99416.03;;;21.97;58.70
47726;BME280;33483;48.294;16.388;2023-06-14T05:09:35;99416.81;;;23.02;52.53
47726;BME280;33483;48.294;16.388;2023-06-14T05:12:05;99411.16;;;23.13;52.88
47726;BME280;33483;48.294;16.388;2023-06-14T05:14:38;99413.47;;;23.17;50.47
47726;BME280;33483;48.294;16.388;2023-06-14T05:17:06;99416.25;;;23.90;45.30
47726;BME280;33483;48.294;16.388;2023-06-14T05:19:36;99421.03;;;24.51;42.67
47726;BME280;33483;48.294;16.388;2023-06-14T05:22:03;99428.94;;;24.67;42.01
47726;BME280;33483;48.294;16.388;2023-06-14T05:24:33;99436.91;;;25.24;41.24
47726;BME280;33483;48.294;16.388;2023-06-14T05:27:00;99433.34;;;24.97;42.40
47726;BME280;33483;48.294;16.388;2023-06-14T05:29:27;99437.25;;;23.49;45.32
47726;BME280;33483;48.294;16.388;2023-06-14T05:31:56;99434.31;;;22.64;46.29
47726;BME280;33483;48.294;16.388;2023-06-14T05:34:24;99441.63;;;22.46;45.77
47726;BME280;33483;48.294;16.388;2023-06-14T05:36:51;99436.38;;;22.40;46.58
47726;BME280;33483;48.294;16.388;2023-06-14T05:39:18;99437.84;;;22.41;46.00
47726;BME280;33483;48.294;16.388;2023-06-14T05:41:45;99433.41;;;22.50;46.35
47726;BME280;33483;48.294;16.388;2023-06-14T05:44:16;99441.47;;;22.09;47.40
47726;BME280;33483;48.294;16.388;2023-06-14T05:46:43;99441.66;;;20.33;49.28
47726;BME280;33483;48.294;16.388;2023-06-14T05:49:10;99433.63;;;19.60;52.85
47726;BME280;33483;48.294;16.388;2023-06-14T05:51:38;99434.38;;;19.61;54.01
47726;BME280;33483;48.294;16.388;2023-06-14T05:54:08;99444.06;;;20.88;49.11
47726;BME280;33483;48.294;16.388;2023-06-14T05:56:35;99446.44;;;21.12;49.38
47726;BME280;33483;48.294;16.388;2023-06-14T05:59:04;99448.03;;;20.14;52.83
47726;BME280;33483;48.294;16.388;2023-06-14T06:01:32;99440.41;;;19.67;54.70
47726;BME280;33483;48.294;16.388;2023-06-14T06:04:01;99440.97;;;19.27;55.79
47726;BME280;33483;48.294;16.388;2023-06-14T06:06:28;99446.09;;;18.92;57.57
47726;BME280;33483;48.294;16.388;2023-06-14T06:08:55;99439.47;;;18.88;58.27
47726;BME280;33483;48.294;16.388;2023-06-14T06:11:23;99445.94;;;18.90;60.84
47726;BME280;33483;48.294;16.388;2023-06-14T06:13:56;99438.50;;;18.76;61.18
47726;BME280;33483;48.294;16.388;2023-06-14T06:16:26;99456.56;;;19.38;56.65
47726;BME280;33483;48.294;16.388;2023-06-14T06:18:53;99453.69;;;19.19;57.57
47726;BME280;33483;48.294;16.388;2023-06-14T06:21:20;99462.63;;;18.79;59.15
47726;BME280;33483;48.294;16.388;2023-06-14T06:23:48;99462.47;;;19.51;58.11
47726;BME280;33483;48.294;16.388;2023-06-14T06:26:15;99467.50;;;19.34;57.08
47726;BME280;33483;48.294;16.388;2023-06-14T06:28:42;99467.59;;;19.07;59.07
47726;BME280;33483;48.294;16.388;2023-06-14T06:31:09;99467.22;;;19.49;58.51
47726;BME280;33483;48.294;16.388;2023-06-14T06:33:38;99466.13;;;19.25;57.73
47726;BME280;33483;48.294;16.388;2023-06-14T06:36:06;99473.41;;;19.76;55.74
47726;BME280;33483;48.294;16.388;2023-06-14T06:38:33;99470.56;;;20.24;54.77
47726;BME280;33483;48.294;16.388;2023-06-14T06:41:01;99469.56;;;19.81;53.08
47726;BME280;33483;48.294;16.388;2023-06-14T06:43:28;99480.97;;;19.73;54.21
47726;BME280;33483;48.294;16.388;2023-06-14T06:45:57;99480.50;;;19.96;54.92
47726;BME280;33483;48.294;16.388;2023-06-14T06:48:24;99483.56;;;20.29;51.12
47726;BME280;33483;48.294;16.388;2023-06-14T06:50:54;99484.97;;;20.89;51.26
47726;BME280;33483;48.294;16.388;2023-06-14T06:53:22;99480.94;;;21.65;47.26
47726;BME280;33483;48.294;16.388;2023-06-14T06:56:04;99477.81;;;22.82;46.09
47726;BME280;33483;48.294;16.388;2023-06-14T06:58:32;99486.47;;;24.30;43.03
47726;BME280;33483;48.294;16.388;2023-06-14T07:01:00;99488.50;;;24.94;41.03
47726;BME280;33483;48.294;16.388;2023-06-14T07:03:27;99492.78;;;25.49;39.10
47726;BME280;33483;48.294;16.388;2023-06-14T07:05:57;99486.59;;;25.39;39.23
47726;BME280;33483;48.294;16.388;2023-06-14T07:08:24;99491.69;;;25.70;37.54
47726;BME280;33483;48.294;16.388;2023-06-14T07:10:51;99498.41;;;25.76;37.59
47726;BME280;33483;48.294;16.388;2023-06-14T07:13:21;99496.59;;;26.12;37.50
47726;BME280;33483;48.294;16.388;2023-06-14T07:15:54;99503.47;;;27.29;35.96
47726;BME280;33483;48.294;16.388;2023-06-14T07:18:22;99502.59;;;27.76;34.08
47726;BME280;33483;48.294;16.388;2023-06-14T07:20:49;99504.22;;;27.81;34.11
47726;BME280;33483;48.294;16.388;2023-06-14T07:23:17;99515.56;;;27.96;35.49
47726;BME280;33483;48.294;16.388;2023-06-14T07:25:46;99506.91;;;28.29;34.74
47726;BME280;33483;48.294;16.388;2023-06-14T07:28:14;99515.47;;;28.12;33.65
47726;BME280;33483;48.294;16.388;2023-06-14T07:30:41;99512.09;;;27.82;33.97
47726;BME280;33483;48.294;16.388;2023-06-14T07:33:08;99518.06;;;28.23;32.75
47726;BME280;33483;48.294;16.388;2023-06-14T07:35:37;99522.38;;;28.42;32.40
47726;BME280;33483;48.294;16.388;2023-06-14T07:38:08;99520.91;;;28.58;33.72
47726;BME280;33483;48.294;16.388;2023-06-14T07:40:35;99519.91;;;28.69;32.22
47726;BME280;33483;48.294;16.388;2023-06-14T07:43:05;99519.91;;;29.09;30.87
47726;BME280;33483;48.294;16.388;2023-06-14T07:45:32;99512.91;;;28.92;32.16
47726;BME280;33483;48.294;16.388;2023-06-14T07:47:59;99519.13;;;29.26;32.56
47726;BME280;33483;48.294;16.388;2023-06-14T07:50:29;99520.19;;;29.36;30.27
47726;BME280;33483;48.294;16.388;2023-06-14T07:52:57;99531.34;;;29.48;29.70
47726;BME280;33483;48.294;16.388;2023-06-14T07:55:24;99522.53;;;29.42;30.91
47726;BME280;33483;48.294;16.388;2023-06-14T07:57:52;99532.13;;;29.70;30.85
47726;BME280;33483;48.294;16.388;2023-06-14T08:00:19;99532.44;;;29.80;30.47
47726;BME280;33483;48.294;16.388;2023-06-14T08:02:47;99527.88;;;29.93;29.16
47726;BME280;33483;48.294;16.388;2023-06-14T08:05:24;99528.66;;;29.73;30.12
47726;BME280;33483;48.294;16.388;2023-06-14T08:07:51;99519.72;;;29.83;32.51
47726;BME280;33483;48.294;16.388;2023-06-14T08:10:21;99525.81;;;29.95;31.73
47726;BME280;33483;48.294;16.388;2023-06-14T08:12:49;99528.63;;;30.83;28.65
47726;BME280;33483;48.294;16.388;2023-06-14T08:15:19;99522.19;;;31.09;28.76
47726;BME280;33483;48.294;16.388;2023-06-14T08:17:50;99536.69;;;31.40;27.34
47726;BME280;33483;48.294;16.388;2023-06-14T08:20:19;99547.06;;;31.28;26.95
47726;BME280;33483;48.294;16.388;2023-06-14T08:22:47;99541.41;;;30.80;27.55
47726;BME280;33483;48.294;16.388;2023-06-14T08:25:17;99532.91;;;30.16;30.33
47726;BME280;33483;48.294;16.388;2023-06-14T08:27:47;99538.81;;;30.22;29.09
47726;BME280;33483;48.294;16.388;2023-06-14T08:30:14;99531.88;;;30.50;31.94
47726;BME280;33483;48.294;16.388;2023-06-14T08:32:41;99537.59;;;30.50;28.57
47726;BME280;33483;48.294;16.388;2023-06-14T08:35:09;99544.69;;;30.47;29.39
47726;BME280;33483;48.294;16.388;2023-06-14T08:37:40;99541.41;;;30.80;26.94
47726;BME280;33483;48.294;16.388;2023-06-14T08:40:20;99547.72;;;30.53;28.95
47726;BME280;33483;48.294;16.388;2023-06-14T08:42:50;99537.28;;;30.19;29.08
47726;BME280;33483;48.294;16.388;2023-06-14T08:45:20;99541.28;;;30.10;31.64
47726;BME280;33483;48.294;16.388;2023-06-14T08:47:51;99546.13;;;30.48;27.85
47726;BME280;33483;48.294;16.388;2023-06-14T08:50:25;99545.72;;;31.05;27.07
47726;BME280;33483;48.294;16.388;2023-06-14T08:52:58;99541.75;;;30.45;27.96
47726;BME280;33483;48.294;16.388;2023-06-14T08:55:30;99545.72;;;30.58;28.60
47726;BME280;33483;48.294;16.388;2023-06-14T08:58:02;99545.94;;;30.89;29.21
47726;BME280;33483;48.294;16.388;2023-06-14T09:00:30;99540.34;;;30.46;29.91
47726;BME280;33483;48.294;16.388;2023-06-14T09:03:00;99547.72;;;30.53;27.67
47726;BME280;33483;48.294;16.388;2023-06-14T09:05:28;99539.69;;;30.71;29.11
47726;BME280;33483;48.294;16.388;2023-06-14T09:07:56;99546.00;;;30.91;28.84
47726;BME280;33483;48.294;16.388;2023-06-14T09:10:33;99543.28;;;30.72;29.21
47726;BME280;33483;48.294;16.388;2023-06-14T09:13:05;99545.34;;;30.69;27.43
47726;BME280;33483;48.294;16.388;2023-06-14T09:15:33;99553.78;;;29.57;27.23
47726;BME280;33483;48.294;16.388;2023-06-14T09:18:01;99550.91;;;30.20;27.30
47726;BME280;33483;48.294;16.388;2023-06-14T09:20:29;99559.81;;;30.28;27.38
47726;BME280;33483;48.294;16.388;2023-06-14T09:22:57;99556.22;;;30.28;29.01
47726;BME280;33483;48.294;16.388;2023-06-14T09:25:24;99548.31;;;29.63;28.09
47726;BME280;33483;48.294;16.388;2023-06-14T09:28:06;99546.00;;;30.44;28.22
47726;BME280;33483;48.294;16.388;2023-06-14T09:30:34;99544.50;;;29.98;27.98
47726;BME280;33483;48.294;16.388;2023-06-14T09:33:02;99535.50;;;29.06;28.70
47726;BME280;33483;48.294;16.388;2023-06-14T09:35:31;99538.78;;;29.57;29.11
47726;BME280;33483;48.294;16.388;2023-06-14T09:37:58;99536.81;;;29.42;29.09
47726;BME280;33483;48.294;16.388;2023-06-14T09:40:28;99526.31;;;29.27;29.51
47726;BME280;33483;48.294;16.388;2023-06-14T09:42:55;99530.13;;;30.18;31.46
47726;BME280;33483;48.294;16.388;2023-06-14T09:45:25;99531.69;;;30.44;29.97
47726;BME280;33483;48.294;16.388;2023-06-14T09:47:58;99536.72;;;29.79;28.42
47726;BME280;33483;48.294;16.388;2023-06-14T09:50:28;99539.31;;;29.93;27.90
47726;BME280;33483;48.294;16.388;2023-06-14T09:52:56;99531.16;;;29.63;31.88
47726;BME280;33483;48.294;16.388;2023-06-14T09:55:27;99541.56;;;29.55;27.93
47726;BME280;33483;48.294;16.388;2023-06-14T09:57:57;99539.31;;;29.93;27.16
47726;BME280;33483;48.294;16.388;2023-06-14T10:00:26;99535.84;;;30.18;28.25
47726;BME280;33483;48.294;16.388;2023-06-14T10:02:54;99541.19;;;30.06;27.43
47726;BME280;33483;48.294;16.388;2023-06-14T10:05:25;99533.22;;;30.47;29.08
47726;BME280;33483;48.294;16.388;2023-06-14T10:07:56;99529.59;;;30.23;27.58
47726;BME280;33483;48.294;16.388;2023-06-14T10:10:25;99541.22;;;30.29;27.34
47726;BME280;33483;48.294;16.388;2023-06-14T10:12:53;99530.09;;;27.87;29.08
47726;BME280;33483;48.294;16.388;2023-06-14T10:15:28;99517.91;;;26.87;33.50
47726;BME280;33483;48.294;16.388;2023-06-14T10:18:01;99515.66;;;25.67;34.12
47726;BME280;33483;48.294;16.388;2023-06-14T10:23:37;99518.38;;;24.31;36.95
47726;BME280;33483;48.294;16.388;2023-06-14T10:26:05;99515.94;;;26.15;33.11
47726;BME280;33483;48.294;16.388;2023-06-14T10:28:32;99507.13;;;27.32;31.00
47726;BME280;33483;48.294;16.388;2023-06-14T10:33:31;99527.56;;;28.47;28.38
47726;BME280;33483;48.294;16.388;2023-06-14T10:36:08;99513.34;;;29.04;27.64
47726;BME280;33483;48.294;16.388;2023-06-14T10:38:38;99521.66;;;29.57;27.67
47726;BME280;33483;48.294;16.388;2023-06-14T10:41:05;99520.34;;;30.03;29.36
47726;BME280;33483;48.294;16.388;2023-06-14T10:43:33;99525.94;;;29.99;28.19
47726;BME280;33483;48.294;16.388;2023-06-14T10:46:16;99518.16;;;30.02;26.81
47726;BME280;33483;48.294;16.388;2023-06-14T10:48:45;99522.75;;;29.89;29.31
47726;BME280;33483;48.294;16.388;2023-06-14T10:51:15;99509.75;;;29.64;28.25
47726;BME280;33483;48.294;16.388;2023-06-14T10:53:50;99513.22;;;29.20;28.29
47726;BME280;33483;48.294;16.388;2023-06-14T10:58:56;99508.75;;;27.70;29.27
47726;BME280;33483;48.294;16.388;2023-06-14T11:01:28;99512.00;;;28.68;28.99
47726;BME280;33483;48.294;16.388;2023-06-14T11:04:05;99510.94;;;28.59;28.60
47726;BME280;33483;48.294;16.388;2023-06-14T11:11:34;99498.69;;;28.02;29.30
47726;BME280;33483;48.294;16.388;2023-06-14T11:14:02;99500.06;;;28.36;29.21
47726;BME280;33483;48.294;16.388;2023-06-14T11:16:29;99498.50;;;28.33;27.32
47726;BME280;33483;48.294;16.388;2023-06-14T11:19:00;99501.44;;;28.35;28.14
47726;BME280;33483;48.294;16.388;2023-06-14T11:21:31;99500.00;;;27.99;28.25
47726;BME280;33483;48.294;16.388;2023-06-14T11:24:00;99504.97;;;27.48;29.41
47726;BME280;33483;48.294;16.388;2023-06-14T11:30:17;99485.56;;;25.19;33.66
47726;BME280;33483;48.294;16.388;2023-06-14T11:32:47;99491.75;;;25.85;32.55
47726;BME280;33483;48.294;16.388;2023-06-14T11:35:15;99500.22;;;25.56;31.02
47726;BME280;33483;48.294;16.388;2023-06-14T11:37:45;99484.56;;;26.27;31.19
47726;BME280;33483;48.294;16.388;2023-06-14T11:40:17;99490.38;;;25.86;32.01
47726;BME280;33483;48.294;16.388;2023-06-14T11:42:44;99482.00;;;25.05;32.50
47726;BME280;33483;48.294;16.388;2023-06-14T11:45:12;99488.09;;;25.40;33.70
47726;BME280;33483;48.294;16.388;2023-06-14T11:47:39;99479.09;;;24.25;35.80
47726;BME280;33483;48.294;16.388;2023-06-14T11:50:07;99472.94;;;23.79;37.31
47726;BME280;33483;48.294;16.388;2023-06-14T11:52:36;99465.94;;;23.43;35.43
47726;BME280;33483;48.294;16.388;2023-06-14T11:55:04;99469.78;;;23.01;36.31
47726;BME280;33483;48.294;16.388;2023-06-14T11:57:34;99480.22;;;22.53;36.80
47726;BME280;33483;48.294;16.388;2023-06-14T12:00:03;99471.13;;;22.43;37.74
47726;BME280;33483;48.294;16.388;2023-06-14T12:02:37;99474.06;;;22.33;37.00
47726;BME280;33483;48.294;16.388;2023-06-14T12:05:05;99466.34;;;22.45;40.48
47726;BME280;33483;48.294;16.388;2023-06-14T12:07:34;99462.44;;;22.62;39.40
47726;BME280;33483;48.294;16.388;2023-06-14T12:12:29;99461.44;;;23.15;38.44
47726;BME280;33483;48.294;16.388;2023-06-14T12:14:57;99462.78;;;23.87;38.28
47726;BME280;33483;48.294;16.388;2023-06-14T12:17:24;99462.16;;;24.00;36.68
47726;BME280;33483;48.294;16.388;2023-06-14T12:19:52;99462.34;;;24.29;35.42
47726;BME280;33483;48.294;16.388;2023-06-14T12:22:19;99458.25;;;24.32;35.82
47726;BME280;33483;48.294;16.388;2023-06-14T12:24:47;99455.47;;;24.46;35.20
47726;BME280;33483;48.294;16.388;2023-06-14T12:27:16;99461.34;;;24.64;35.66
47726;BME280;33483;48.294;16.388;2023-06-14T12:29:47;99459.88;;;24.63;36.28
47726;BME280;33483;48.294;16.388;2023-06-14T12:32:25;99451.22;;;24.72;37.70
47726;BME280;33483;48.294;16.388;2023-06-14T12:34:52;99457.09;;;24.76;33.51
47726;BME280;33483;48.294;16.388;2023-06-14T12:37:19;99447.81;;;24.62;36.91
47726;BME280;33483;48.294;16.388;2023-06-14T12:39:49;99448.78;;;24.67;37.84
47726;BME280;33483;48.294;16.388;2023-06-14T12:42:19;99451.22;;;24.72;36.30
47726;BME280;33483;48.294;16.388;2023-06-14T12:44:48;99457.97;;;24.53;35.74
47726;BME280;33483;48.294;16.388;2023-06-14T12:47:15;99459.41;;;24.41;34.54
47726;BME280;33483;48.294;16.388;2023-06-14T12:49:43;99456.91;;;24.33;34.76
47726;BME280;33483;48.294;16.388;2023-06-14T12:52:10;99445.69;;;23.60;35.23
47726;BME280;33483;48.294;16.388;2023-06-14T12:54:37;99447.72;;;23.46;38.13
47726;BME280;33483;48.294;16.388;2023-06-14T12:57:07;99444.91;;;23.71;37.53
47726;BME280;33483;48.294;16.388;2023-06-14T12:59:37;99450.66;;;23.48;36.89
47726;BME280;33483;48.294;16.388;2023-06-14T13:02:15;99441.56;;;23.75;36.82
47726;BME280;33483;48.294;16.388;2023-06-14T13:04:43;99441.75;;;24.15;36.51
47726;BME280;33483;48.294;16.388;2023-06-14T13:07:10;99436.69;;;24.52;35.95
47726;BME280;33483;48.294;16.388;2023-06-14T13:09:40;99433.97;;;24.55;35.97
47726;BME280;33483;48.294;16.388;2023-06-14T13:12:08;99452.31;;;24.53;35.51
47726;BME280;33483;48.294;16.388;2023-06-14T13:14:35;99448.31;;;24.59;35.00
47726;BME280;33483;48.294;16.388;2023-06-14T13:17:02;99445.56;;;24.72;34.99
47726;BME280;33483;48.294;16.388;2023-06-14T13:19:30;99439.25;;;24.74;34.64
47726;BME280;33483;48.294;16.388;2023-06-14T13:21:57;99438.84;;;24.93;34.99